createdAt,value
2022-09-12T00:00:35.309Z,11.542358
2022-09-12T00:01:42.995Z,11.522217
2022-09-12T00:02:52.646Z,11.522217
2022-09-12T00:04:02.331Z,11.522217
2022-09-12T00:05:09.982Z,11.542358
2022-09-12T00:06:22.773Z,11.512146
2022-09-12T00:07:29.341Z,11.502075
2022-09-12T00:08:38.001Z,11.502075
2022-09-12T00:09:47.675Z,11.502075
2022-09-12T00:10:56.342Z,11.481934
2022-09-12T00:12:06.003Z,11.481934
2022-09-12T00:13:14.864Z,11.451721
2022-09-12T00:14:24.546Z,11.451721
2022-09-12T00:15:34.211Z,11.43158
2022-09-12T00:16:41.922Z,11.411438
2022-09-12T00:17:50.551Z,11.411438
2022-09-12T00:19:00.261Z,11.43158
2022-09-12T00:20:08.942Z,11.43158
2022-09-12T00:21:18.629Z,11.371155
2022-09-12T00:22:27.313Z,11.361084
2022-09-12T00:23:35.962Z,11.351013
2022-09-12T00:24:45.662Z,11.351013
2022-09-12T00:25:53.336Z,11.351013
2022-09-12T00:27:03.013Z,11.361084
2022-09-12T00:28:12.691Z,11.351013
2022-09-12T00:29:21.346Z,11.351013
2022-09-12T00:30:30.021Z,11.371155
2022-09-12T00:31:37.731Z,11.361084
2022-09-12T00:32:45.361Z,11.351013
2022-09-12T00:33:55.041Z,11.330872
2022-09-12T00:35:03.708Z,11.320801
2022-09-12T00:36:13.409Z,11.320801
2022-09-12T00:37:23.085Z,11.300659
2022-09-12T00:38:32.802Z,11.320801
2022-09-12T00:39:42.501Z,11.300659
2022-09-12T00:40:51.122Z,11.270447
2022-09-12T00:41:59.857Z,11.270447
2022-09-12T00:43:09.555Z,11.270447
2022-09-12T00:44:18.212Z,11.260376
2022-09-12T00:45:26.921Z,11.220093
2022-09-12T00:46:35.572Z,11.220093
2022-09-12T00:47:43.269Z,11.17981
2022-09-12T00:48:52.933Z,11.149597
2022-09-12T00:50:02.629Z,11.119385
2022-09-12T00:51:12.316Z,11.119385
2022-09-12T00:52:21.004Z,11.099243
2022-09-12T00:53:28.685Z,11.099243
2022-09-12T00:54:38.381Z,11.079102
2022-09-12T00:55:47.041Z,11.069031
2022-09-12T00:56:55.773Z,11.048889
2022-09-12T00:58:05.451Z,11.048889
2022-09-12T00:59:13.251Z,11.018677
2022-09-12T01:00:22.948Z,10.968323
2022-09-12T01:01:32.655Z,10.958252
2022-09-12T01:02:40.286Z,10.93811
2022-09-12T01:03:49.968Z,10.897827
2022-09-12T01:04:57.665Z,10.917969
2022-09-12T01:06:06.341Z,10.887756
2022-09-12T01:07:16.097Z,10.857544
2022-09-12T01:08:23.765Z,10.80719
2022-09-12T01:09:33.440Z,10.776978
2022-09-12T01:10:43.194Z,10.776978
2022-09-12T01:11:52.863Z,10.756836
2022-09-12T01:13:02.546Z,10.756836
2022-09-12T01:14:11.219Z,10.756836
2022-09-12T01:15:19.887Z,10.776978
2022-09-12T01:16:29.618Z,10.787048
2022-09-12T01:17:38.280Z,10.787048
2022-09-12T01:18:47.976Z,10.80719
2022-09-12T01:19:57.643Z,10.80719
2022-09-12T01:21:05.299Z,10.756836
2022-09-12T01:22:14.983Z,10.736694
2022-09-12T01:23:22.668Z,10.716553
2022-09-12T01:24:32.351Z,10.67627
2022-09-12T01:25:41.019Z,10.67627
2022-09-12T01:26:49.704Z,10.67627
2022-09-12T01:27:59.358Z,10.706482
2022-09-12T01:29:09.018Z,10.706482
2022-09-12T01:30:16.694Z,10.746765
2022-09-12T01:31:26.397Z,10.736694
2022-09-12T01:32:34.048Z,10.736694
2022-09-12T01:33:42.726Z,10.716553
2022-09-12T01:34:53.402Z,10.736694
2022-09-12T01:36:01.083Z,10.716553
2022-09-12T01:37:09.744Z,10.716553
2022-09-12T01:38:19.422Z,10.68634
2022-09-12T01:39:27.109Z,10.706482
2022-09-12T01:40:36.782Z,10.67627
2022-09-12T01:41:44.470Z,10.666199
2022-09-12T01:42:53.161Z,10.595703
2022-09-12T01:44:02.826Z,10.565491
2022-09-12T01:45:11.516Z,10.55542
2022-09-12T01:46:21.189Z,10.525208
2022-09-12T01:47:29.858Z,10.484924
2022-09-12T01:48:37.547Z,10.464783
2022-09-12T01:49:47.209Z,10.414429
2022-09-12T01:50:55.892Z,10.384216
2022-09-12T01:52:04.554Z,10.374146
2022-09-12T01:53:14.237Z,10.333862
2022-09-12T01:54:21.903Z,10.283508
2022-09-12T01:55:31.555Z,10.263367
2022-09-12T01:56:40.235Z,10.223083
2022-09-12T01:57:47.946Z,10.192871
2022-09-12T01:58:57.648Z,10.152588
2022-09-12T02:00:06.313Z,10.132446
2022-09-12T02:01:15.068Z,10.092163
2022-09-12T02:02:24.871Z,10.05188
2022-09-12T02:03:33.513Z,10.041809
2022-09-12T02:04:43.182Z,9.991455
2022-09-12T02:05:51.848Z,9.971313
2022-09-12T02:07:00.522Z,9.941101
2022-09-12T02:08:10.211Z,9.890747
2022-09-12T02:09:19.906Z,9.870605
2022-09-12T02:10:32.461Z,9.830322
2022-09-12T02:11:39.228Z,9.820251
2022-09-12T02:12:48.959Z,9.769897
2022-09-12T02:13:58.678Z,9.769897
2022-09-12T02:15:08.397Z,9.759827
2022-09-12T02:16:17.095Z,9.739685
2022-09-12T02:17:26.741Z,9.769897
2022-09-12T02:18:35.452Z,9.860535
2022-09-12T02:19:43.214Z,9.890747
2022-09-12T02:20:52.880Z,9.920959
2022-09-12T02:22:01.557Z,9.890747
2022-09-12T02:23:11.223Z,9.920959
2022-09-12T02:24:20.897Z,9.920959
2022-09-12T02:25:30.565Z,9.991455
2022-09-12T02:26:40.234Z,10.011597
2022-09-12T02:27:48.908Z,10.092163
2022-09-12T02:28:58.613Z,10.092163
2022-09-12T02:30:08.284Z,10.132446
2022-09-12T02:31:15.989Z,10.122375
2022-09-12T02:32:25.620Z,10.122375
2022-09-12T02:33:34.294Z,10.102234
2022-09-12T02:34:41.948Z,10.122375
2022-09-12T02:35:51.640Z,10.122375
2022-09-12T02:36:59.319Z,10.122375
2022-09-12T02:38:07.969Z,10.132446
2022-09-12T02:39:17.659Z,10.132446
2022-09-12T02:40:26.335Z,10.152588
2022-09-12T02:41:35.997Z,10.152588
2022-09-12T02:42:44.694Z,10.132446
2022-09-12T02:43:52.343Z,10.152588
2022-09-12T02:45:02.013Z,10.132446
2022-09-12T02:46:09.702Z,10.152588
2022-09-12T02:47:18.344Z,10.152588
2022-09-12T02:48:28.002Z,10.152588
2022-09-12T02:49:37.709Z,10.122375
2022-09-12T02:50:47.389Z,10.122375
2022-09-12T02:51:56.046Z,10.102234
2022-09-12T02:53:05.716Z,10.122375
2022-09-12T02:54:14.422Z,10.072021
2022-09-12T02:55:22.091Z,10.072021
2022-09-12T02:56:31.807Z,10.05188
2022-09-12T02:57:41.455Z,10.011597
2022-09-12T02:58:51.197Z,10.011597
2022-09-12T03:00:00.910Z,10.011597
2022-09-12T03:01:09.649Z,9.981384
2022-09-12T03:02:19.257Z,9.991455
2022-09-12T03:03:27.923Z,10.011597
2022-09-12T03:04:38.565Z,10.041809
2022-09-12T03:05:48.267Z,10.041809
2022-09-12T03:06:57.935Z,10.05188
2022-09-12T03:08:07.611Z,10.05188
2022-09-12T03:09:17.278Z,10.041809
2022-09-12T03:10:25.945Z,10.041809
2022-09-12T03:11:35.635Z,10.05188
2022-09-12T03:12:44.286Z,10.021667
2022-09-12T03:13:52.964Z,10.011597
2022-09-12T03:15:02.659Z,9.991455
2022-09-12T03:16:10.385Z,9.951172
2022-09-12T03:17:20.042Z,9.910889
2022-09-12T03:18:29.740Z,9.890747
2022-09-12T03:19:38.391Z,9.830322
2022-09-12T03:20:47.075Z,9.790039
2022-09-12T03:21:55.820Z,9.769897
2022-09-12T03:23:04.570Z,9.769897
2022-09-12T03:24:14.284Z,9.769897
2022-09-12T03:25:22.984Z,9.739685
2022-09-12T03:26:32.653Z,9.729614
2022-09-12T03:27:42.324Z,9.719543
2022-09-12T03:28:50.012Z,9.67926
2022-09-12T03:29:59.672Z,9.67926
2022-09-12T03:31:08.353Z,9.659119
2022-09-12T03:32:16.010Z,9.659119
2022-09-12T03:33:25.701Z,9.649048
2022-09-12T03:34:33.409Z,9.659119
2022-09-12T03:35:42.061Z,9.649048
2022-09-12T03:36:51.748Z,9.649048
2022-09-12T03:38:00.426Z,9.638977
2022-09-12T03:39:10.100Z,9.638977
2022-09-12T03:40:18.813Z,9.588623
2022-09-12T03:41:27.480Z,9.588623
2022-09-12T03:42:37.155Z,9.578552
2022-09-12T03:43:44.814Z,9.588623
2022-09-12T03:44:53.511Z,9.578552
2022-09-12T03:46:03.216Z,9.588623
2022-09-12T03:47:11.450Z,9.588623
2022-09-12T03:48:20.524Z,9.588623
2022-09-12T03:49:29.215Z,9.578552
2022-09-12T03:50:37.910Z,9.578552
2022-09-12T03:51:47.600Z,9.558411
2022-09-12T03:52:55.292Z,9.54834
2022-09-12T03:54:04.955Z,9.538269
2022-09-12T03:55:14.638Z,9.538269
2022-09-12T03:56:24.308Z,9.497986
2022-09-12T03:57:34.071Z,9.497986
2022-09-12T03:58:43.765Z,9.467773
2022-09-12T03:59:51.404Z,9.467773
2022-09-12T04:01:01.133Z,9.457703
2022-09-12T04:02:09.824Z,9.437561
2022-09-12T04:03:18.436Z,9.42749
2022-09-12T04:04:28.118Z,9.407349
2022-09-12T04:05:36.812Z,9.397278
2022-09-12T04:06:46.498Z,9.387207
2022-09-12T04:07:56.165Z,9.387207
2022-09-12T04:09:04.859Z,9.387207
2022-09-12T04:10:16.146Z,9.387207
2022-09-12T04:11:23.229Z,9.387207
2022-09-12T04:12:31.910Z,9.367065
2022-09-12T04:13:41.625Z,9.367065
2022-09-12T04:14:49.303Z,9.336853
2022-09-12T04:15:59.001Z,9.356995
2022-09-12T04:17:08.680Z,9.336853
2022-09-12T04:18:16.358Z,9.367065
2022-09-12T04:19:26.054Z,9.387207
2022-09-12T04:20:34.752Z,9.397278
2022-09-12T04:21:44.440Z,9.387207
2022-09-12T04:22:54.165Z,9.397278
2022-09-12T04:24:02.842Z,9.397278
2022-09-12T04:25:12.567Z,9.407349
2022-09-12T04:26:22.284Z,9.397278
2022-09-12T04:27:30.969Z,9.407349
2022-09-12T04:28:40.649Z,9.397278
2022-09-12T04:29:49.342Z,9.407349
2022-09-12T04:30:58.075Z,9.387207
2022-09-12T04:32:07.723Z,9.336853
2022-09-12T04:33:15.446Z,9.306641
2022-09-12T04:34:25.156Z,9.306641
2022-09-12T04:35:33.836Z,9.306641
2022-09-12T04:36:42.518Z,9.316711
2022-09-12T04:37:52.209Z,9.336853
2022-09-12T04:38:59.937Z,9.286499
2022-09-12T04:40:08.605Z,9.276428
2022-09-12T04:41:18.225Z,9.246216
2022-09-12T04:42:26.906Z,9.246216
2022-09-12T04:43:35.631Z,9.216003
2022-09-12T04:44:45.283Z,9.276428
2022-09-12T04:45:53.007Z,9.286499
2022-09-12T04:47:01.679Z,9.316711
2022-09-12T04:48:10.403Z,9.316711
2022-09-12T04:49:20.174Z,9.286499
2022-09-12T04:50:29.892Z,9.286499
2022-09-12T04:51:38.571Z,9.276428
2022-09-12T04:52:48.251Z,9.286499
2022-09-12T04:53:55.924Z,9.286499
2022-09-12T04:55:06.533Z,9.316711
2022-09-12T04:56:20.442Z,9.306641
2022-09-12T04:57:32.083Z,9.316711
2022-09-12T04:58:41.803Z,9.316711
2022-09-12T04:59:49.489Z,9.306641
2022-09-12T05:00:58.321Z,9.286499
2022-09-12T05:02:08.023Z,9.286499
2022-09-12T05:03:15.665Z,9.276428
2022-09-12T05:04:25.350Z,9.276428
2022-09-12T05:05:34.013Z,9.256287
2022-09-12T05:06:41.719Z,9.256287
2022-09-12T05:07:50.386Z,9.246216
2022-09-12T05:08:58.063Z,9.246216
2022-09-12T05:10:07.740Z,9.216003
2022-09-12T05:11:19.572Z,9.205933
2022-09-12T05:12:28.114Z,9.216003
2022-09-12T05:13:37.827Z,9.205933
2022-09-12T05:14:46.509Z,9.205933
2022-09-12T05:15:55.177Z,9.226074
2022-09-12T05:17:04.889Z,9.246216
2022-09-12T05:18:12.611Z,9.256287
2022-09-12T05:19:21.285Z,9.286499
2022-09-12T05:20:30.973Z,9.336853
2022-09-12T05:21:38.675Z,9.367065
2022-09-12T05:22:48.411Z,9.457703
2022-09-12T05:23:57.116Z,9.618835
2022-09-12T05:25:05.789Z,9.67926
2022-09-12T05:26:15.464Z,9.659119
2022-09-12T05:27:23.155Z,9.638977
2022-09-12T05:28:32.797Z,9.618835
2022-09-12T05:29:42.601Z,9.649048
2022-09-12T05:30:52.353Z,9.638977
2022-09-12T05:32:01.982Z,9.649048
2022-09-12T05:33:10.667Z,9.649048
2022-09-12T05:34:18.354Z,9.67926
2022-09-12T05:35:28.077Z,9.689331
2022-09-12T05:36:35.750Z,9.719543
2022-09-12T05:37:44.419Z,9.729614
2022-09-12T05:38:54.097Z,9.820251
2022-09-12T05:40:02.814Z,9.910889
2022-09-12T05:41:17.028Z,10.011597
2022-09-12T05:42:23.103Z,10.041809
2022-09-12T05:43:31.796Z,10.041809
2022-09-12T05:44:41.468Z,10.021667
2022-09-12T05:45:50.194Z,10.05188
2022-09-12T05:46:58.888Z,10.041809
2022-09-12T05:48:08.571Z,10.092163
2022-09-12T05:49:18.278Z,10.102234
2022-09-12T05:50:27.969Z,10.102234
2022-09-12T05:51:37.677Z,10.102234
2022-09-12T05:52:46.373Z,10.122375
2022-09-12T05:53:56.043Z,10.152588
2022-09-12T05:55:03.709Z,10.172729
2022-09-12T05:56:12.387Z,10.192871
2022-09-12T05:57:22.062Z,10.223083
2022-09-12T05:58:29.752Z,10.223083
2022-09-12T05:59:39.450Z,10.233154
2022-09-12T06:00:56.177Z,10.30365
2022-09-12T06:02:03.895Z,10.313721
2022-09-12T06:03:13.552Z,10.313721
2022-09-12T06:04:23.388Z,10.333862
2022-09-12T06:05:31.054Z,10.343933
2022-09-12T06:06:40.722Z,10.374146
2022-09-12T06:07:49.393Z,10.414429
2022-09-12T06:08:58.075Z,10.444641
2022-09-12T06:10:07.828Z,10.505066
2022-09-12T06:11:15.508Z,10.535278
2022-09-12T06:12:25.219Z,10.55542
2022-09-12T06:13:34.909Z,10.565491
2022-09-12T06:14:43.638Z,10.605774
2022-09-12T06:15:53.580Z,10.666199
2022-09-12T06:17:03.376Z,10.716553
2022-09-12T06:18:11.934Z,10.756836
2022-09-12T06:19:21.748Z,10.787048
2022-09-12T06:20:30.346Z,10.837402
2022-09-12T06:21:39.031Z,10.867615
2022-09-12T06:22:48.716Z,10.917969
2022-09-12T06:23:56.399Z,10.917969
2022-09-12T06:25:05.103Z,10.93811
2022-09-12T06:26:14.780Z,10.988464
2022-09-12T06:27:23.607Z,10.998535
2022-09-12T06:28:33.293Z,11.069031
2022-09-12T06:29:42.957Z,11.119385
2022-09-12T06:30:51.753Z,11.169739
2022-09-12T06:32:01.341Z,11.230164
2022-09-12T06:33:09.211Z,11.290588
2022-09-12T06:34:18.890Z,11.351013
2022-09-12T06:35:28.628Z,11.43158
2022-09-12T06:36:37.274Z,11.502075
2022-09-12T06:37:46.958Z,11.572571
2022-09-12T06:38:54.647Z,11.653137
2022-09-12T06:40:03.387Z,11.723633
2022-09-12T06:41:13.001Z,11.804199
2022-09-12T06:42:20.720Z,11.884766
2022-09-12T06:43:30.440Z,11.985474
2022-09-12T06:44:39.186Z,12.116394
2022-09-12T06:45:48.886Z,12.267456
2022-09-12T06:46:57.575Z,12.398376
2022-09-12T06:48:05.265Z,12.609863
2022-09-12T06:49:14.955Z,12.82135
2022-09-12T06:50:23.645Z,13.052979
2022-09-12T06:51:32.329Z,13.274536
2022-09-12T06:52:42.014Z,13.496094
2022-09-12T06:53:50.732Z,13.737793
2022-09-12T06:55:00.423Z,13.929138
2022-09-12T06:56:10.141Z,14.100342
2022-09-12T06:57:18.814Z,14.321899
2022-09-12T06:58:28.553Z,14.553528
2022-09-12T06:59:36.238Z,14.785156
2022-09-12T07:00:45.902Z,15.036926
2022-09-12T07:01:56.705Z,15.238342
2022-09-12T07:03:05.292Z,15.429688
2022-09-12T07:04:14.936Z,15.621033
2022-09-12T07:05:24.603Z,15.83252
2022-09-12T07:06:33.305Z,16.09436
2022-09-12T07:07:43.148Z,16.325989
2022-09-12T07:08:51.826Z,16.537476
2022-09-12T07:10:01.542Z,16.638184
2022-09-12T07:11:10.225Z,16.688538
2022-09-12T07:12:20.003Z,16.779175
2022-09-12T07:13:29.729Z,16.859741
2022-09-12T07:14:39.406Z,16.940308
2022-09-12T07:15:48.102Z,17.09137
2022-09-12T07:16:57.786Z,17.22229
2022-09-12T07:18:05.440Z,17.34314
2022-09-12T07:19:15.304Z,17.484131
2022-09-12T07:20:24.970Z,17.675476
2022-09-12T07:21:33.642Z,17.84668
2022-09-12T07:22:43.336Z,18.007812
2022-09-12T07:23:52.062Z,18.128662
2022-09-12T07:25:00.716Z,18.22937
2022-09-12T07:26:10.422Z,18.289795
2022-09-12T07:27:19.102Z,18.289795
2022-09-12T07:28:28.759Z,18.219299
2022-09-12T07:29:38.453Z,18.189087
2022-09-12T07:30:46.200Z,18.259583
2022-09-12T07:31:55.914Z,18.380432
2022-09-12T07:33:04.597Z,18.400574
2022-09-12T07:34:13.285Z,18.400574
2022-09-12T07:35:22.989Z,18.440857
2022-09-12T07:36:32.930Z,18.561707
2022-09-12T07:37:42.634Z,18.581848
2022-09-12T07:38:55.610Z,18.742981
2022-09-12T07:40:02.056Z,18.894043
2022-09-12T07:41:11.661Z,19.145813
2022-09-12T07:42:20.363Z,19.478149
2022-09-12T07:43:28.038Z,19.689636
2022-09-12T07:44:37.723Z,19.911194
2022-09-12T07:45:46.451Z,20.062256
2022-09-12T07:46:56.127Z,20.102539
2022-09-12T07:48:05.772Z,19.921265
2022-09-12T07:49:14.459Z,20.032043
2022-09-12T07:50:24.215Z,19.951477
2022-09-12T07:51:33.926Z,19.921265
2022-09-12T07:52:42.559Z,19.86084
2022-09-12T07:53:52.288Z,19.699707
2022-09-12T07:55:00.963Z,19.86084
2022-09-12T07:56:10.637Z,20.001831
2022-09-12T07:57:20.369Z,20.142822
2022-09-12T07:58:28.059Z,20.032043
2022-09-12T07:59:51.864Z,19.86084
2022-09-12T08:00:48.415Z,19.850769
2022-09-12T08:01:57.102Z,19.951477
2022-09-12T08:03:06.753Z,20.092468
2022-09-12T08:04:15.431Z,20.314026
2022-09-12T08:05:24.145Z,20.444946
2022-09-12T08:06:33.821Z,20.626221
2022-09-12T08:07:42.534Z,20.877991
2022-09-12T08:08:52.180Z,21.200256
2022-09-12T08:10:01.854Z,21.37146
2022-09-12T08:11:10.561Z,21.522522
2022-09-12T08:12:20.236Z,21.693726
2022-09-12T08:13:28.903Z,21.885071
2022-09-12T08:14:37.582Z,22.096558
2022-09-12T08:15:47.292Z,22.24762
2022-09-12T08:16:55.963Z,22.388611
2022-09-12T08:18:04.637Z,22.469177
2022-09-12T08:19:13.308Z,22.438965
2022-09-12T08:20:25.319Z,22.217407
2022-09-12T08:21:31.634Z,22.177124
2022-09-12T08:22:41.479Z,22.217407
2022-09-12T08:23:50.207Z,22.24762
2022-09-12T08:24:58.849Z,22.217407
2022-09-12T08:26:07.515Z,22.066345
2022-09-12T08:27:17.177Z,21.905212
2022-09-12T08:28:25.867Z,21.693726
2022-09-12T08:29:33.551Z,21.673584
2022-09-12T08:30:43.365Z,21.603088
2022-09-12T08:31:53.967Z,21.391602
2022-09-12T08:32:59.553Z,21.139832
2022-09-12T08:34:09.246Z,21.149902
2022-09-12T08:35:17.962Z,21.270752
2022-09-12T08:36:27.649Z,21.542664
2022-09-12T08:37:36.315Z,21.925354
2022-09-12T08:38:43.975Z,21.985779
2022-09-12T08:39:54.891Z,21.512451
2022-09-12T08:41:04.472Z,21.351318
2022-09-12T08:42:14.153Z,21.603088
2022-09-12T08:43:23.839Z,22.066345
2022-09-12T08:44:32.502Z,22.318115
2022-09-12T08:45:42.198Z,22.287903
2022-09-12T08:46:49.934Z,22.318115
2022-09-12T08:47:59.518Z,22.388611
2022-09-12T08:49:08.194Z,22.24762
2022-09-12T08:50:15.866Z,22.096558
2022-09-12T08:51:25.568Z,22.066345
2022-09-12T08:52:33.266Z,21.804504
2022-09-12T08:53:41.998Z,21.401672
2022-09-12T08:54:51.644Z,21.37146
2022-09-12T08:56:00.335Z,21.572876
2022-09-12T08:57:10.057Z,21.522522
2022-09-12T08:58:18.720Z,21.673584
2022-09-12T08:59:27.409Z,21.99585
2022-09-12T09:00:37.114Z,22.227478
2022-09-12T09:01:45.880Z,22.076416
2022-09-12T09:02:54.516Z,22.015991
2022-09-12T09:04:04.213Z,22.066345
2022-09-12T09:05:13.893Z,21.925354
2022-09-12T09:06:23.560Z,21.885071
2022-09-12T09:07:33.241Z,22.036133
2022-09-12T09:08:41.944Z,22.217407
2022-09-12T09:09:49.627Z,22.277832
2022-09-12T09:10:58.338Z,22.136841
2022-09-12T09:12:07.070Z,22.227478
2022-09-12T09:13:16.734Z,22.358398
2022-09-12T09:14:25.452Z,22.600098
2022-09-12T09:15:35.190Z,22.529602
2022-09-12T09:16:43.806Z,22.49939
2022-09-12T09:17:53.520Z,22.851868
2022-09-12T09:19:03.191Z,23.174133
2022-09-12T09:20:10.959Z,23.365479
2022-09-12T09:21:19.664Z,23.576965
2022-09-12T09:22:28.366Z,23.728027
2022-09-12T09:23:37.049Z,23.869019
2022-09-12T09:24:46.708Z,24.01001
2022-09-12T09:25:55.442Z,24.291992
2022-09-12T09:27:03.123Z,24.483337
2022-09-12T09:28:13.774Z,24.533691
2022-09-12T09:29:23.463Z,24.725037
2022-09-12T09:30:32.128Z,24.906311
2022-09-12T09:31:41.841Z,25.027161
2022-09-12T09:32:49.507Z,25.107727
2022-09-12T09:33:59.189Z,25.248718
2022-09-12T09:35:08.873Z,25.379639
2022-09-12T09:36:16.550Z,25.470276
2022-09-12T09:37:26.259Z,25.349426
2022-09-12T09:38:36.023Z,25.329285
2022-09-12T09:39:44.640Z,25.137939
2022-09-12T09:40:54.342Z,24.986877
2022-09-12T09:42:03.017Z,24.926453
2022-09-12T09:43:12.870Z,24.986877
2022-09-12T09:44:22.683Z,25.107727
2022-09-12T09:45:31.337Z,25.258789
2022-09-12T09:46:42.056Z,25.379639
2022-09-12T09:47:50.684Z,25.530701
2022-09-12T09:48:59.388Z,25.500488
2022-09-12T09:50:09.627Z,25.470276
2022-09-12T09:51:18.316Z,25.510559
2022-09-12T09:52:27.980Z,25.701904
2022-09-12T09:53:36.663Z,25.832825
2022-09-12T09:54:45.361Z,25.701904
2022-09-12T09:55:55.068Z,25.691833
2022-09-12T09:57:03.772Z,25.752258
2022-09-12T09:58:13.490Z,25.852966
2022-09-12T09:59:23.192Z,26.094666
2022-09-12T10:00:31.930Z,26.14502
2022-09-12T10:01:41.601Z,26.14502
2022-09-12T10:02:50.338Z,26.094666
2022-09-12T10:03:59.005Z,26.104736
2022-09-12T10:05:08.696Z,26.15509
2022-09-12T10:06:17.417Z,25.691833
2022-09-12T10:07:26.105Z,25.530701
2022-09-12T10:08:35.800Z,25.530701
2022-09-12T10:09:45.456Z,25.500488
2022-09-12T10:10:55.136Z,25.530701
2022-09-12T10:12:03.838Z,25.621338
2022-09-12T10:13:12.515Z,25.530701
2022-09-12T10:14:22.207Z,25.480347
2022-09-12T10:15:29.925Z,25.409851
2022-09-12T10:16:38.621Z,25.510559
2022-09-12T10:17:48.302Z,25.631409
2022-09-12T10:18:56.989Z,25.691833
2022-09-12T10:20:22.319Z,25.601196
2022-09-12T10:21:17.308Z,25.460205
2022-09-12T10:22:25.982Z,25.460205
2022-09-12T10:23:35.828Z,25.530701
2022-09-12T10:24:43.462Z,25.409851
2022-09-12T10:25:53.138Z,25.429993
2022-09-12T10:27:02.825Z,25.460205
2022-09-12T10:28:10.528Z,25.460205
2022-09-12T10:29:20.511Z,25.440063
2022-09-12T10:30:29.301Z,25.510559
2022-09-12T10:31:35.869Z,25.691833
2022-09-12T10:32:45.589Z,25.90332
2022-09-12T10:33:55.232Z,26.02417
2022-09-12T10:35:04.912Z,26.054382
2022-09-12T10:36:14.637Z,26.064453
2022-09-12T10:37:22.267Z,26.15509
2022-09-12T10:38:31.988Z,26.356506
2022-09-12T10:39:40.700Z,26.437073
2022-09-12T10:40:50.391Z,26.507568
2022-09-12T10:42:00.105Z,26.628418
2022-09-12T10:43:07.751Z,26.628418
2022-09-12T10:44:17.449Z,26.749268
2022-09-12T10:45:26.151Z,26.799622
2022-09-12T10:46:34.985Z,26.849976
2022-09-12T10:47:44.685Z,26.829834
2022-09-12T10:48:54.423Z,26.920471
2022-09-12T10:50:04.077Z,26.799622
2022-09-12T10:51:13.757Z,26.477356
2022-09-12T10:52:22.470Z,26.336365
2022-09-12T10:53:35.356Z,26.427002
2022-09-12T10:54:41.816Z,26.215515
2022-09-12T10:55:51.501Z,26.034241
2022-09-12T10:57:01.210Z,25.963745
2022-09-12T10:58:08.908Z,26.064453
2022-09-12T10:59:20.190Z,26.134949
2022-09-12T11:00:28.295Z,26.094666
2022-09-12T11:01:38.037Z,26.205444
2022-09-12T11:02:47.748Z,26.255798
2022-09-12T11:03:55.358Z,26.356506
2022-09-12T11:05:05.044Z,26.366577
2022-09-12T11:06:14.732Z,26.477356
2022-09-12T11:07:22.429Z,26.356506
2022-09-12T11:08:32.106Z,26.356506
2022-09-12T11:09:41.808Z,26.356506
2022-09-12T11:10:50.485Z,26.40686
2022-09-12T11:12:01.150Z,26.467285
2022-09-12T11:13:09.823Z,26.628418
2022-09-12T11:14:18.548Z,26.698914
2022-09-12T11:15:28.244Z,26.678772
2022-09-12T11:16:36.905Z,26.598206
2022-09-12T11:17:46.554Z,26.598206
2022-09-12T11:18:55.235Z,26.557922
2022-09-12T11:20:02.907Z,26.65863
2022-09-12T11:21:11.660Z,26.708984
2022-09-12T11:22:21.318Z,26.77948
2022-09-12T11:23:30.987Z,26.799622
2022-09-12T11:24:40.710Z,26.950684
2022-09-12T11:25:48.453Z,27.021179
2022-09-12T11:26:58.196Z,27.111816
2022-09-12T11:28:07.879Z,27.222595
2022-09-12T11:29:16.593Z,26.880188
2022-09-12T11:30:26.314Z,26.598206
2022-09-12T11:31:34.965Z,26.255798
2022-09-12T11:32:44.689Z,26.02417
2022-09-12T11:33:56.755Z,25.983887
2022-09-12T11:35:02.015Z,26.104736
2022-09-12T11:36:11.749Z,26.366577
2022-09-12T11:37:20.475Z,26.64856
2022-09-12T11:38:29.146Z,26.920471
2022-09-12T11:39:38.847Z,27.172241
2022-09-12T11:40:46.620Z,26.930542
2022-09-12T11:41:56.290Z,26.890259
2022-09-12T11:43:05.989Z,27.03125
2022-09-12T11:44:15.710Z,27.212524
2022-09-12T11:45:25.387Z,27.514648
2022-09-12T11:46:35.045Z,27.554932
2022-09-12T11:47:42.706Z,27.454224
2022-09-12T11:48:52.410Z,27.494507
2022-09-12T11:50:01.204Z,27.625427
2022-09-12T11:51:09.879Z,27.705994
2022-09-12T11:52:19.556Z,27.816772
2022-09-12T11:53:27.253Z,27.826843
2022-09-12T11:54:36.888Z,28.018188
2022-09-12T11:55:45.577Z,28.098755
2022-09-12T11:56:54.251Z,28.16925
2022-09-12T11:58:03.918Z,28.300171
2022-09-12T11:59:12.591Z,28.632507
2022-09-12T12:00:20.249Z,28.753357
2022-09-12T12:01:29.985Z,28.884277
2022-09-12T12:02:39.695Z,28.783569
2022-09-12T12:03:49.345Z,28.572083
2022-09-12T12:04:58.962Z,28.823853
2022-09-12T12:06:07.638Z,29.035339
2022-09-12T12:07:16.346Z,29.015198
2022-09-12T12:08:24.008Z,28.974915
2022-09-12T12:09:32.702Z,29.075623
2022-09-12T12:10:42.372Z,29.236755
2022-09-12T12:11:50.036Z,29.357605
2022-09-12T12:12:59.780Z,29.287109
2022-09-12T12:14:09.435Z,29.41803
2022-09-12T12:15:17.111Z,29.377747
2022-09-12T12:16:26.779Z,29.317322
2022-09-12T12:17:36.467Z,29.569092
2022-09-12T12:18:46.334Z,29.720154
2022-09-12T12:19:55.847Z,29.841003
2022-09-12T12:21:06.503Z,29.911499
2022-09-12T12:22:16.182Z,29.951782
2022-09-12T12:23:24.852Z,29.951782
2022-09-12T12:24:32.535Z,30.002136
2022-09-12T12:25:42.251Z,29.760437
2022-09-12T12:26:50.905Z,29.216614
2022-09-12T12:27:59.562Z,28.672791
2022-09-12T12:29:09.255Z,28.380737
2022-09-12T12:30:17.944Z,28.642578
2022-09-12T12:31:27.804Z,28.944702
2022-09-12T12:32:36.423Z,29.216614
2022-09-12T12:33:46.096Z,29.589233
2022-09-12T12:34:55.767Z,29.911499
2022-09-12T12:36:03.494Z,30.122986
2022-09-12T12:37:13.159Z,30.324402
2022-09-12T12:38:22.022Z,30.394897
2022-09-12T12:39:30.694Z,30.30426
2022-09-12T12:40:40.376Z,30.344543
2022-09-12T12:41:48.088Z,30.465393
2022-09-12T12:42:57.743Z,30.435181
2022-09-12T12:44:06.461Z,30.133057
2022-09-12T12:45:15.193Z,30.082703
2022-09-12T12:46:24.965Z,30.153198
2022-09-12T12:47:33.656Z,30.354614
2022-09-12T12:48:42.321Z,30.153198
2022-09-12T12:49:51.980Z,30.133057
2022-09-12T12:50:59.641Z,29.971924
2022-09-12T12:52:08.325Z,30.102844
2022-09-12T12:53:17.154Z,30.133057
2022-09-12T12:54:26.845Z,30.314331
2022-09-12T12:55:36.523Z,30.324402
2022-09-12T12:56:44.200Z,30.102844
2022-09-12T12:57:52.884Z,29.901428
2022-09-12T12:59:02.567Z,30.092773
2022-09-12T13:00:11.256Z,30.233765
2022-09-12T13:01:20.976Z,30.284119
2022-09-12T13:02:30.731Z,30.193481
2022-09-12T13:03:39.392Z,30.465393
2022-09-12T13:04:49.083Z,30.42511
2022-09-12T13:05:57.766Z,30.022278
2022-09-12T13:07:08.565Z,29.649658
2022-09-12T13:08:17.171Z,29.357605
2022-09-12T13:09:25.831Z,29.095764
2022-09-12T13:10:36.040Z,29.528809
2022-09-12T13:11:44.718Z,29.629517
2022-09-12T13:12:52.377Z,29.196472
2022-09-12T13:14:02.098Z,29.196472
2022-09-12T13:15:11.822Z,29.508667